sensor_id;sensor_type;location;lat;lon;timestamp;temperature;humidity
16128;DHT22;8168;49.036;7.690;2022-07-05T00:02:25;15.50;96.40
16128;DHT22;8168;49.036;7.690;2022-07-05T00:04:56;15.40;96.70
16128;DHT22;8168;49.036;7.690;2022-07-05T00:07:26;15.40;96.90
16128;DHT22;8168;49.036;7.690;2022-07-05T00:09:58;15.40;97.00
16128;DHT22;8168;49.036;7.690;2022-07-05T00:12:31;15.40;97.20
16128;DHT22;8168;49.036;7.690;2022-07-05T00:15:03;15.40;97.20
16128;DHT22;8168;49.036;7.690;2022-07-05T00:17:33;15.40;97.30
16128;DHT22;8168;49.036;7.690;2022-07-05T00:20:05;15.40;97.40
16128;DHT22;8168;49.036;7.690;2022-07-05T00:22:35;15.40;97.40
16128;DHT22;8168;49.036;7.690;2022-07-05T00:25:06;15.40;97.30
16128;DHT22;8168;49.036;7.690;2022-07-05T00:27:37;15.30;97.30
16128;DHT22;8168;49.036;7.690;2022-07-05T00:30:09;15.30;97.30
16128;DHT22;8168;49.036;7.690;2022-07-05T00:32:40;15.30;97.30
16128;DHT22;8168;49.036;7.690;2022-07-05T00:35:11;15.20;97.30
16128;DHT22;8168;49.036;7.690;2022-07-05T00:37:42;15.20;97.40
16128;DHT22;8168;49.036;7.690;2022-07-05T00:40:12;15.20;97.50
16128;DHT22;8168;49.036;7.690;2022-07-05T00:42:43;15.20;97.60
16128;DHT22;8168;49.036;7.690;2022-07-05T00:45:14;15.20;97.60
16128;DHT22;8168;49.036;7.690;2022-07-05T00:47:44;15.10;97.60
16128;DHT22;8168;49.036;7.690;2022-07-05T00:50:15;15.10;97.70
16128;DHT22;8168;49.036;7.690;2022-07-05T00:52:46;15.10;97.70
16128;DHT22;8168;49.036;7.690;2022-07-05T00:55:16;15.00;97.80
16128;DHT22;8168;49.036;7.690;2022-07-05T00:57:48;15.00;97.90
16128;DHT22;8168;49.036;7.690;2022-07-05T01:00:19;14.90;97.90
16128;DHT22;8168;49.036;7.690;2022-07-05T01:02:50;14.90;98.00
16128;DHT22;8168;49.036;7.690;2022-07-05T01:05:21;14.90;98.10
16128;DHT22;8168;49.036;7.690;2022-07-05T01:07:52;14.80;98.20
16128;DHT22;8168;49.036;7.690;2022-07-05T01:10:23;14.80;98.20
16128;DHT22;8168;49.036;7.690;2022-07-05T01:12:54;14.70;98.30
16128;DHT22;8168;49.036;7.690;2022-07-05T01:15:25;14.70;98.30
16128;DHT22;8168;49.036;7.690;2022-07-05T01:17:56;14.70;98.30
16128;DHT22;8168;49.036;7.690;2022-07-05T01:20:27;14.70;98.50
16128;DHT22;8168;49.036;7.690;2022-07-05T01:22:58;14.60;98.60
16128;DHT22;8168;49.036;7.690;2022-07-05T01:25:32;14.60;98.70
16128;DHT22;8168;49.036;7.690;2022-07-05T01:28:03;14.60;98.80
16128;DHT22;8168;49.036;7.690;2022-07-05T01:30:35;14.50;98.70
16128;DHT22;8168;49.036;7.690;2022-07-05T01:33:07;14.50;98.80
16128;DHT22;8168;49.036;7.690;2022-07-05T01:35:38;14.50;98.80
16128;DHT22;8168;49.036;7.690;2022-07-05T01:38:13;14.50;98.80
16128;DHT22;8168;49.036;7.690;2022-07-05T01:40:43;14.50;98.80
16128;DHT22;8168;49.036;7.690;2022-07-05T01:43:14;14.40;98.80
16128;DHT22;8168;49.036;7.690;2022-07-05T01:45:46;14.40;99.10
16128;DHT22;8168;49.036;7.690;2022-07-05T01:48:19;14.30;99.20
16128;DHT22;8168;49.036;7.690;2022-07-05T01:50:59;14.30;99.20
16128;DHT22;8168;49.036;7.690;2022-07-05T01:53:32;14.30;99.10
16128;DHT22;8168;49.036;7.690;2022-07-05T01:56:03;14.30;99.20
16128;DHT22;8168;49.036;7.690;2022-07-05T01:58:35;14.20;99.30
16128;DHT22;8168;49.036;7.690;2022-07-05T02:01:06;14.20;99.40
16128;DHT22;8168;49.036;7.690;2022-07-05T02:03:36;14.20;99.50
16128;DHT22;8168;49.036;7.690;2022-07-05T02:06:07;14.20;99.50
16128;DHT22;8168;49.036;7.690;2022-07-05T02:08:40;14.10;99.50
16128;DHT22;8168;49.036;7.690;2022-07-05T02:11:11;14.10;99.40
16128;DHT22;8168;49.036;7.690;2022-07-05T02:13:41;14.10;99.50
16128;DHT22;8168;49.036;7.690;2022-07-05T02:16:12;14.10;99.50
16128;DHT22;8168;49.036;7.690;2022-07-05T02:18:42;14.00;99.40
16128;DHT22;8168;49.036;7.690;2022-07-05T02:21:13;14.00;99.50
16128;DHT22;8168;49.036;7.690;2022-07-05T02:23:44;14.00;99.60
16128;DHT22;8168;49.036;7.690;2022-07-05T02:26:15;14.00;99.70
16128;DHT22;8168;49.036;7.690;2022-07-05T02:28:45;13.90;99.70
16128;DHT22;8168;49.036;7.690;2022-07-05T02:31:16;13.90;99.70
16128;DHT22;8168;49.036;7.690;2022-07-05T02:33:47;13.80;99.70
16128;DHT22;8168;49.036;7.690;2022-07-05T02:36:18;13.80;99.90
16128;DHT22;8168;49.036;7.690;2022-07-05T02:38:48;13.80;99.90
16128;DHT22;8168;49.036;7.690;2022-07-05T02:41:19;13.80;99.90
16128;DHT22;8168;49.036;7.690;2022-07-05T02:43:49;13.70;99.90
16128;DHT22;8168;49.036;7.690;2022-07-05T02:46:21;13.60;99.90
16128;DHT22;8168;49.036;7.690;2022-07-05T02:48:52;13.60;99.90
16128;DHT22;8168;49.036;7.690;2022-07-05T02:51:25;13.60;99.90
16128;DHT22;8168;49.036;7.690;2022-07-05T02:53:56;13.60;99.90
16128;DHT22;8168;49.036;7.690;2022-07-05T02:56:27;13.60;99.90
16128;DHT22;8168;49.036;7.690;2022-07-05T02:58:57;13.60;99.90
16128;DHT22;8168;49.036;7.690;2022-07-05T03:01:28;13.60;99.90
16128;DHT22;8168;49.036;7.690;2022-07-05T03:03:59;13.50;99.90
16128;DHT22;8168;49.036;7.690;2022-07-05T03:06:30;13.60;99.90
16128;DHT22;8168;49.036;7.690;2022-07-05T03:09:01;13.50;99.90
16128;DHT22;8168;49.036;7.690;2022-07-05T03:11:31;13.50;99.90
16128;DHT22;8168;49.036;7.690;2022-07-05T03:14:02;13.50;99.90
16128;DHT22;8168;49.036;7.690;2022-07-05T03:16:33;13.40;99.90
16128;DHT22;8168;49.036;7.690;2022-07-05T03:19:04;13.40;99.90
16128;DHT22;8168;49.036;7.690;2022-07-05T03:21:34;13.40;99.90
16128;DHT22;8168;49.036;7.690;2022-07-05T03:24:05;13.40;99.90
16128;DHT22;8168;49.036;7.690;2022-07-05T03:26:36;13.30;99.90
16128;DHT22;8168;49.036;7.690;2022-07-05T03:29:07;13.30;99.90
16128;DHT22;8168;49.036;7.690;2022-07-05T03:31:37;13.30;99.90
16128;DHT22;8168;49.036;7.690;2022-07-05T03:34:08;13.20;99.90
16128;DHT22;8168;49.036;7.690;2022-07-05T03:36:39;13.20;99.90
16128;DHT22;8168;49.036;7.690;2022-07-05T03:39:09;13.20;99.90
16128;DHT22;8168;49.036;7.690;2022-07-05T03:41:40;13.20;99.90
16128;DHT22;8168;49.036;7.690;2022-07-05T03:44:11;13.10;99.90
16128;DHT22;8168;49.036;7.690;2022-07-05T03:46:41;13.10;99.90
16128;DHT22;8168;49.036;7.690;2022-07-05T03:49:12;13.10;99.90
16128;DHT22;8168;49.036;7.690;2022-07-05T03:51:42;13.00;99.90
16128;DHT22;8168;49.036;7.690;2022-07-05T03:54:13;13.00;99.90
16128;DHT22;8168;49.036;7.690;2022-07-05T03:56:44;13.00;99.90
16128;DHT22;8168;49.036;7.690;2022-07-05T03:59:14;12.90;99.90
16128;DHT22;8168;49.036;7.690;2022-07-05T04:01:45;12.90;99.90
16128;DHT22;8168;49.036;7.690;2022-07-05T04:04:15;13.00;99.90
16128;DHT22;8168;49.036;7.690;2022-07-05T04:06:46;13.00;99.90
16128;DHT22;8168;49.036;7.690;2022-07-05T04:09:17;13.00;99.90
16128;DHT22;8168;49.036;7.690;2022-07-05T04:11:47;13.00;99.90
16128;DHT22;8168;49.036;7.690;2022-07-05T04:14:18;13.00;99.90
16128;DHT22;8168;49.036;7.690;2022-07-05T04:16:48;12.90;99.90
16128;DHT22;8168;49.036;7.690;2022-07-05T04:19:19;12.90;99.90
16128;DHT22;8168;49.036;7.690;2022-07-05T04:21:50;13.00;99.90
16128;DHT22;8168;49.036;7.690;2022-07-05T04:24:20;12.90;99.90
16128;DHT22;8168;49.036;7.690;2022-07-05T04:26:51;13.00;99.90
16128;DHT22;8168;49.036;7.690;2022-07-05T04:29:22;12.90;99.90
16128;DHT22;8168;49.036;7.690;2022-07-05T04:31:52;12.90;99.90
16128;DHT22;8168;49.036;7.690;2022-07-05T04:34:23;13.00;99.90
16128;DHT22;8168;49.036;7.690;2022-07-05T04:36:53;13.00;99.90
16128;DHT22;8168;49.036;7.690;2022-07-05T04:39:24;13.00;99.90
16128;DHT22;8168;49.036;7.690;2022-07-05T04:41:55;13.00;99.90
16128;DHT22;8168;49.036;7.690;2022-07-05T04:44:25;13.00;99.90
16128;DHT22;8168;49.036;7.690;2022-07-05T04:46:56;13.00;99.90
16128;DHT22;8168;49.036;7.690;2022-07-05T04:49:26;13.00;99.90
16128;DHT22;8168;49.036;7.690;2022-07-05T04:51:57;13.00;99.90
16128;DHT22;8168;49.036;7.690;2022-07-05T04:54:27;13.00;99.90
16128;DHT22;8168;49.036;7.690;2022-07-05T04:56:58;13.10;99.90
16128;DHT22;8168;49.036;7.690;2022-07-05T04:59:29;13.10;99.90
16128;DHT22;8168;49.036;7.690;2022-07-05T05:01:59;13.20;99.90
16128;DHT22;8168;49.036;7.690;2022-07-05T05:04:30;13.20;99.90
16128;DHT22;8168;49.036;7.690;2022-07-05T05:07:01;13.30;99.90
16128;DHT22;8168;49.036;7.690;2022-07-05T05:09:32;13.40;99.90
16128;DHT22;8168;49.036;7.690;2022-07-05T05:12:02;13.40;99.90
16128;DHT22;8168;49.036;7.690;2022-07-05T05:14:33;13.50;99.90
16128;DHT22;8168;49.036;7.690;2022-07-05T05:17:04;13.60;99.90
16128;DHT22;8168;49.036;7.690;2022-07-05T05:19:34;13.60;99.90
16128;DHT22;8168;49.036;7.690;2022-07-05T05:22:05;13.70;99.90
16128;DHT22;8168;49.036;7.690;2022-07-05T05:24:36;13.80;99.90
16128;DHT22;8168;49.036;7.690;2022-07-05T05:27:06;13.90;99.90
16128;DHT22;8168;49.036;7.690;2022-07-05T05:29:37;14.00;99.90
16128;DHT22;8168;49.036;7.690;2022-07-05T05:32:07;14.20;99.90
16128;DHT22;8168;49.036;7.690;2022-07-05T05:34:38;14.30;99.90
16128;DHT22;8168;49.036;7.690;2022-07-05T05:37:09;14.40;99.90
16128;DHT22;8168;49.036;7.690;2022-07-05T05:39:39;14.50;99.90
16128;DHT22;8168;49.036;7.690;2022-07-05T05:42:10;14.60;99.90
16128;DHT22;8168;49.036;7.690;2022-07-05T05:44:41;14.70;99.90
16128;DHT22;8168;49.036;7.690;2022-07-05T05:47:11;14.90;99.90
16128;DHT22;8168;49.036;7.690;2022-07-05T05:49:42;15.00;99.90
16128;DHT22;8168;49.036;7.690;2022-07-05T05:52:12;15.20;99.90
16128;DHT22;8168;49.036;7.690;2022-07-05T05:54:43;15.30;99.90
16128;DHT22;8168;49.036;7.690;2022-07-05T05:57:13;15.40;99.90
16128;DHT22;8168;49.036;7.690;2022-07-05T05:59:44;15.50;99.90
16128;DHT22;8168;49.036;7.690;2022-07-05T06:02:15;15.70;99.90
16128;DHT22;8168;49.036;7.690;2022-07-05T06:04:45;15.80;99.90
16128;DHT22;8168;49.036;7.690;2022-07-05T06:07:16;15.90;99.90
16128;DHT22;8168;49.036;7.690;2022-07-05T06:09:46;16.00;99.90
16128;DHT22;8168;49.036;7.690;2022-07-05T06:12:17;16.20;99.90
16128;DHT22;8168;49.036;7.690;2022-07-05T06:14:48;16.30;99.90
16128;DHT22;8168;49.036;7.690;2022-07-05T06:17:19;16.40;99.90
16128;DHT22;8168;49.036;7.690;2022-07-05T06:19:49;16.60;99.90
16128;DHT22;8168;49.036;7.690;2022-07-05T06:22:20;16.70;99.90
16128;DHT22;8168;49.036;7.690;2022-07-05T06:24:50;16.80;99.90
16128;DHT22;8168;49.036;7.690;2022-07-05T06:27:21;17.00;99.90
16128;DHT22;8168;49.036;7.690;2022-07-05T06:29:51;17.10;99.90
16128;DHT22;8168;49.036;7.690;2022-07-05T06:32:22;17.30;99.90
16128;DHT22;8168;49.036;7.690;2022-07-05T06:34:53;17.40;99.90
16128;DHT22;8168;49.036;7.690;2022-07-05T06:37:23;17.50;99.90
16128;DHT22;8168;49.036;7.690;2022-07-05T06:39:54;17.60;99.90
16128;DHT22;8168;49.036;7.690;2022-07-05T06:42:24;17.60;99.90
16128;DHT22;8168;49.036;7.690;2022-07-05T06:44:55;17.60;99.90
16128;DHT22;8168;49.036;7.690;2022-07-05T06:47:26;17.70;99.90
16128;DHT22;8168;49.036;7.690;2022-07-05T06:49:58;17.80;99.90
16128;DHT22;8168;49.036;7.690;2022-07-05T06:52:29;18.00;99.90
16128;DHT22;8168;49.036;7.690;2022-07-05T06:55:00;18.10;99.90
16128;DHT22;8168;49.036;7.690;2022-07-05T06:57:31;18.20;99.90
16128;DHT22;8168;49.036;7.690;2022-07-05T07:00:03;18.30;99.90
16128;DHT22;8168;49.036;7.690;2022-07-05T07:02:34;18.50;99.90
16128;DHT22;8168;49.036;7.690;2022-07-05T07:05:05;18.60;99.90
16128;DHT22;8168;49.036;7.690;2022-07-05T07:07:36;18.80;99.90
16128;DHT22;8168;49.036;7.690;2022-07-05T07:10:25;18.80;99.90
16128;DHT22;8168;49.036;7.690;2022-07-05T07:12:57;19.10;99.90
16128;DHT22;8168;49.036;7.690;2022-07-05T07:15:29;19.10;99.90
16128;DHT22;8168;49.036;7.690;2022-07-05T07:18:00;19.20;99.90
16128;DHT22;8168;49.036;7.690;2022-07-05T07:20:30;19.40;99.90
16128;DHT22;8168;49.036;7.690;2022-07-05T07:23:01;19.50;99.90
16128;DHT22;8168;49.036;7.690;2022-07-05T07:25:32;19.60;99.40
16128;DHT22;8168;49.036;7.690;2022-07-05T07:28:02;19.70;99.30
16128;DHT22;8168;49.036;7.690;2022-07-05T07:30:33;19.70;99.00
16128;DHT22;8168;49.036;7.690;2022-07-05T07:33:04;20.00;98.70
16128;DHT22;8168;49.036;7.690;2022-07-05T07:35:34;20.10;98.50
16128;DHT22;8168;49.036;7.690;2022-07-05T07:38:05;20.10;97.70
16128;DHT22;8168;49.036;7.690;2022-07-05T07:40:36;20.20;96.90
16128;DHT22;8168;49.036;7.690;2022-07-05T07:43:06;20.30;97.00
16128;DHT22;8168;49.036;7.690;2022-07-05T07:45:37;20.30;96.90
16128;DHT22;8168;49.036;7.690;2022-07-05T07:48:08;20.40;96.50
16128;DHT22;8168;49.036;7.690;2022-07-05T07:50:39;20.50;95.80
16128;DHT22;8168;49.036;7.690;2022-07-05T07:53:10;20.50;95.90
16128;DHT22;8168;49.036;7.690;2022-07-05T07:55:40;20.60;96.20
16128;DHT22;8168;49.036;7.690;2022-07-05T07:58:11;20.70;96.30
16128;DHT22;8168;49.036;7.690;2022-07-05T08:00:41;20.80;95.90
16128;DHT22;8168;49.036;7.690;2022-07-05T08:03:12;20.90;95.70
16128;DHT22;8168;49.036;7.690;2022-07-05T08:05:42;21.00;95.60
16128;DHT22;8168;49.036;7.690;2022-07-05T08:08:13;21.10;95.00
16128;DHT22;8168;49.036;7.690;2022-07-05T08:10:44;21.30;94.90
16128;DHT22;8168;49.036;7.690;2022-07-05T08:13:14;21.30;94.70
16128;DHT22;8168;49.036;7.690;2022-07-05T08:15:45;21.40;94.20
16128;DHT22;8168;49.036;7.690;2022-07-05T08:18:15;21.50;94.50
16128;DHT22;8168;49.036;7.690;2022-07-05T08:21:05;21.50;94.60
16128;DHT22;8168;49.036;7.690;2022-07-05T08:23:54;21.50;93.50
16128;DHT22;8168;49.036;7.690;2022-07-05T08:26:26;21.60;94.60
16128;DHT22;8168;49.036;7.690;2022-07-05T08:28:58;21.70;94.00
16128;DHT22;8168;49.036;7.690;2022-07-05T08:31:30;21.80;93.70
16128;DHT22;8168;49.036;7.690;2022-07-05T08:34:01;22.00;93.00
16128;DHT22;8168;49.036;7.690;2022-07-05T08:36:32;22.10;92.50
16128;DHT22;8168;49.036;7.690;2022-07-05T08:39:03;22.20;92.10
16128;DHT22;8168;49.036;7.690;2022-07-05T08:41:36;22.30;91.80
16128;DHT22;8168;49.036;7.690;2022-07-05T08:44:08;22.30;91.00
16128;DHT22;8168;49.036;7.690;2022-07-05T08:46:39;22.40;91.20
16128;DHT22;8168;49.036;7.690;2022-07-05T08:49:14;22.40;90.40
16128;DHT22;8168;49.036;7.690;2022-07-05T08:51:45;22.50;90.20
16128;DHT22;8168;49.036;7.690;2022-07-05T08:54:16;22.50;90.30
16128;DHT22;8168;49.036;7.690;2022-07-05T08:56:47;22.60;90.00
16128;DHT22;8168;49.036;7.690;2022-07-05T08:59:20;22.80;90.00
16128;DHT22;8168;49.036;7.690;2022-07-05T09:01:52;23.00;89.60
16128;DHT22;8168;49.036;7.690;2022-07-05T09:04:24;23.10;88.70
16128;DHT22;8168;49.036;7.690;2022-07-05T09:07:03;23.20;86.30
16128;DHT22;8168;49.036;7.690;2022-07-05T09:09:39;23.20;88.90
16128;DHT22;8168;49.036;7.690;2022-07-05T09:12:14;23.20;89.40
16128;DHT22;8168;49.036;7.690;2022-07-05T09:14:45;23.20;85.80
16128;DHT22;8168;49.036;7.690;2022-07-05T09:17:15;23.20;86.10
16128;DHT22;8168;49.036;7.690;2022-07-05T09:20:06;23.30;85.40
16128;DHT22;8168;49.036;7.690;2022-07-05T09:22:53;23.30;85.00
16128;DHT22;8168;49.036;7.690;2022-07-05T09:25:33;24.80;85.10
16128;DHT22;8168;49.036;7.690;2022-07-05T09:28:04;23.50;81.90
16128;DHT22;8168;49.036;7.690;2022-07-05T09:30:39;23.50;80.40
16128;DHT22;8168;49.036;7.690;2022-07-05T09:33:15;23.50;80.30
16128;DHT22;8168;49.036;7.690;2022-07-05T09:35:56;23.40;81.00
16128;DHT22;8168;49.036;7.690;2022-07-05T09:38:28;23.50;82.80
16128;DHT22;8168;49.036;7.690;2022-07-05T09:40:59;23.50;83.90
16128;DHT22;8168;49.036;7.690;2022-07-05T09:43:33;23.60;83.40
16128;DHT22;8168;49.036;7.690;2022-07-05T09:46:04;23.70;80.40
16128;DHT22;8168;49.036;7.690;2022-07-05T09:48:35;23.70;80.50
16128;DHT22;8168;49.036;7.690;2022-07-05T09:51:09;23.80;82.70
16128;DHT22;8168;49.036;7.690;2022-07-05T09:53:54;23.80;84.10
16128;DHT22;8168;49.036;7.690;2022-07-05T09:56:25;23.80;82.80
16128;DHT22;8168;49.036;7.690;2022-07-05T09:59:16;23.70;84.90
16128;DHT22;8168;49.036;7.690;2022-07-05T10:01:49;23.70;82.20
16128;DHT22;8168;49.036;7.690;2022-07-05T10:04:20;23.70;80.90
16128;DHT22;8168;49.036;7.690;2022-07-05T10:06:51;23.70;80.60
16128;DHT22;8168;49.036;7.690;2022-07-05T10:09:22;23.70;81.40
16128;DHT22;8168;49.036;7.690;2022-07-05T10:11:52;23.70;83.50
16128;DHT22;8168;49.036;7.690;2022-07-05T10:14:24;23.80;81.30
16128;DHT22;8168;49.036;7.690;2022-07-05T10:17:03;24.00;82.30
16128;DHT22;8168;49.036;7.690;2022-07-05T10:19:40;24.10;81.10
16128;DHT22;8168;49.036;7.690;2022-07-05T10:22:11;24.30;78.10
16128;DHT22;8168;49.036;7.690;2022-07-05T10:24:42;24.50;75.60
16128;DHT22;8168;49.036;7.690;2022-07-05T10:27:14;24.50;74.00
16128;DHT22;8168;49.036;7.690;2022-07-05T10:29:46;24.60;73.60
16128;DHT22;8168;49.036;7.690;2022-07-05T10:32:18;24.80;73.30
16128;DHT22;8168;49.036;7.690;2022-07-05T10:34:51;25.00;73.50
16128;DHT22;8168;49.036;7.690;2022-07-05T10:37:24;25.00;73.60
16128;DHT22;8168;49.036;7.690;2022-07-05T10:39:59;25.10;73.10
16128;DHT22;8168;49.036;7.690;2022-07-05T10:42:42;25.00;73.80
16128;DHT22;8168;49.036;7.690;2022-07-05T10:50:49;25.40;70.90
16128;DHT22;8168;49.036;7.690;2022-07-05T10:54:00;25.50;68.70
16128;DHT22;8168;49.036;7.690;2022-07-05T10:56:12;25.50;69.80
16128;DHT22;8168;49.036;7.690;2022-07-05T10:58:46;25.50;69.10
16128;DHT22;8168;49.036;7.690;2022-07-05T11:11:42;25.00;69.40
16128;DHT22;8168;49.036;7.690;2022-07-05T11:19:59;25.00;70.70
16128;DHT22;8168;49.036;7.690;2022-07-05T11:22:34;25.20;71.50
16128;DHT22;8168;49.036;7.690;2022-07-05T11:25:07;25.30;70.10
16128;DHT22;8168;49.036;7.690;2022-07-05T11:28:04;25.30;70.30
16128;DHT22;8168;49.036;7.690;2022-07-05T11:30:59;25.40;68.10
16128;DHT22;8168;49.036;7.690;2022-07-05T11:36:02;25.20;70.70
16128;DHT22;8168;49.036;7.690;2022-07-05T11:38:35;25.20;73.60
16128;DHT22;8168;49.036;7.690;2022-07-05T11:41:30;25.30;70.60
16128;DHT22;8168;49.036;7.690;2022-07-05T11:44:02;25.50;68.10
16128;DHT22;8168;49.036;7.690;2022-07-05T11:46:33;25.50;66.80
16128;DHT22;8168;49.036;7.690;2022-07-05T11:49:03;25.60;67.30
16128;DHT22;8168;49.036;7.690;2022-07-05T11:51:34;25.70;68.70
16128;DHT22;8168;49.036;7.690;2022-07-05T11:54:08;25.80;70.90
16128;DHT22;8168;49.036;7.690;2022-07-05T11:56:39;26.00;73.30
16128;DHT22;8168;49.036;7.690;2022-07-05T11:59:20;25.90;71.30
16128;DHT22;8168;49.036;7.690;2022-07-05T12:01:52;25.70;66.10
16128;DHT22;8168;49.036;7.690;2022-07-05T12:04:24;25.60;68.20
16128;DHT22;8168;49.036;7.690;2022-07-05T12:06:56;25.40;66.80
16128;DHT22;8168;49.036;7.690;2022-07-05T12:09:32;25.30;67.30
16128;DHT22;8168;49.036;7.690;2022-07-05T12:12:23;25.30;70.40
16128;DHT22;8168;49.036;7.690;2022-07-05T12:15:14;25.30;70.50
16128;DHT22;8168;49.036;7.690;2022-07-05T12:17:47;25.50;67.80
16128;DHT22;8168;49.036;7.690;2022-07-05T12:20:23;25.50;68.40
16128;DHT22;8168;49.036;7.690;2022-07-05T12:22:54;25.50;65.20
16128;DHT22;8168;49.036;7.690;2022-07-05T12:25:25;25.40;67.00
16128;DHT22;8168;49.036;7.690;2022-07-05T12:27:59;25.40;69.40
16128;DHT22;8168;49.036;7.690;2022-07-05T12:30:32;25.60;65.00
16128;DHT22;8168;49.036;7.690;2022-07-05T12:33:05;25.80;63.50
16128;DHT22;8168;49.036;7.690;2022-07-05T12:35:42;25.90;64.30
16128;DHT22;8168;49.036;7.690;2022-07-05T12:43:18;26.10;60.10
16128;DHT22;8168;49.036;7.690;2022-07-05T12:46:03;26.00;66.60
16128;DHT22;8168;49.036;7.690;2022-07-05T12:48:38;26.00;65.20
16128;DHT22;8168;49.036;7.690;2022-07-05T12:51:10;26.10;63.60
16128;DHT22;8168;49.036;7.690;2022-07-05T12:53:45;26.20;65.80
16128;DHT22;8168;49.036;7.690;2022-07-05T12:56:35;26.50;64.40
16128;DHT22;8168;49.036;7.690;2022-07-05T12:59:24;26.60;59.70
16128;DHT22;8168;49.036;7.690;2022-07-05T13:01:55;26.70;56.40
16128;DHT22;8168;49.036;7.690;2022-07-05T13:04:25;26.60;57.70
16128;DHT22;8168;49.036;7.690;2022-07-05T13:06:58;26.60;62.80
16128;DHT22;8168;49.036;7.690;2022-07-05T13:12:18;26.70;59.80
16128;DHT22;8168;49.036;7.690;2022-07-05T13:14:52;26.70;58.80
16128;DHT22;8168;49.036;7.690;2022-07-05T13:17:24;26.80;64.60
16128;DHT22;8168;49.036;7.690;2022-07-05T13:19:55;26.90;61.40
16128;DHT22;8168;49.036;7.690;2022-07-05T13:22:25;27.00;59.20
16128;DHT22;8168;49.036;7.690;2022-07-05T13:24:56;27.00;62.00
16128;DHT22;8168;49.036;7.690;2022-07-05T13:27:26;27.00;57.60
16128;DHT22;8168;49.036;7.690;2022-07-05T13:29:57;27.10;55.10
16128;DHT22;8168;49.036;7.690;2022-07-05T13:32:28;27.10;54.60
16128;DHT22;8168;49.036;7.690;2022-07-05T13:34:58;27.20;54.90
16128;DHT22;8168;49.036;7.690;2022-07-05T13:37:29;27.20;56.00
16128;DHT22;8168;49.036;7.690;2022-07-05T13:39:59;27.10;56.20
16128;DHT22;8168;49.036;7.690;2022-07-05T13:42:30;27.20;59.20
16128;DHT22;8168;49.036;7.690;2022-07-05T13:45:01;27.20;54.70
16128;DHT22;8168;49.036;7.690;2022-07-05T13:47:31;27.20;52.20
16128;DHT22;8168;49.036;7.690;2022-07-05T13:50:02;27.10;53.80
16128;DHT22;8168;49.036;7.690;2022-07-05T13:52:51;27.10;52.80
16128;DHT22;8168;49.036;7.690;2022-07-05T13:55:25;27.20;53.30
16128;DHT22;8168;49.036;7.690;2022-07-05T13:57:56;27.20;52.80
16128;DHT22;8168;49.036;7.690;2022-07-05T14:00:28;27.20;52.60
16128;DHT22;8168;49.036;7.690;2022-07-05T14:02:58;27.30;54.70
16128;DHT22;8168;49.036;7.690;2022-07-05T14:05:29;27.30;52.60
16128;DHT22;8168;49.036;7.690;2022-07-05T14:08:00;27.30;51.60
16128;DHT22;8168;49.036;7.690;2022-07-05T14:10:30;27.40;52.20
16128;DHT22;8168;49.036;7.690;2022-07-05T14:13:01;27.30;54.40
16128;DHT22;8168;49.036;7.690;2022-07-05T14:15:32;27.20;54.20
16128;DHT22;8168;49.036;7.690;2022-07-05T14:18:03;27.10;54.70
16128;DHT22;8168;49.036;7.690;2022-07-05T14:20:33;27.10;55.30
16128;DHT22;8168;49.036;7.690;2022-07-05T14:23:04;27.20;49.90
16128;DHT22;8168;49.036;7.690;2022-07-05T14:25:35;27.20;49.80
16128;DHT22;8168;49.036;7.690;2022-07-05T14:28:06;27.20;51.10
16128;DHT22;8168;49.036;7.690;2022-07-05T14:30:41;27.20;53.00
16128;DHT22;8168;49.036;7.690;2022-07-05T14:33:14;27.20;51.80
16128;DHT22;8168;49.036;7.690;2022-07-05T14:35:45;27.20;52.80
16128;DHT22;8168;49.036;7.690;2022-07-05T14:38:15;27.30;54.00
16128;DHT22;8168;49.036;7.690;2022-07-05T14:40:46;27.30;52.70
16128;DHT22;8168;49.036;7.690;2022-07-05T14:43:17;27.30;51.80
16128;DHT22;8168;49.036;7.690;2022-07-05T14:45:47;27.30;51.30
16128;DHT22;8168;49.036;7.690;2022-07-05T14:48:18;27.40;53.10
16128;DHT22;8168;49.036;7.690;2022-07-05T14:50:50;27.40;50.90
16128;DHT22;8168;49.036;7.690;2022-07-05T14:53:21;27.40;50.00
16128;DHT22;8168;49.036;7.690;2022-07-05T14:55:51;27.30;49.50
16128;DHT22;8168;49.036;7.690;2022-07-05T14:58:22;27.20;48.40
16128;DHT22;8168;49.036;7.690;2022-07-05T15:00:53;27.30;50.40
16128;DHT22;8168;49.036;7.690;2022-07-05T15:03:24;27.30;48.90
16128;DHT22;8168;49.036;7.690;2022-07-05T15:05:56;27.30;49.90
16128;DHT22;8168;49.036;7.690;2022-07-05T15:08:26;27.40;50.50
16128;DHT22;8168;49.036;7.690;2022-07-05T15:10:58;27.40;50.50
16128;DHT22;8168;49.036;7.690;2022-07-05T15:13:29;27.40;49.70
16128;DHT22;8168;49.036;7.690;2022-07-05T15:16:00;27.30;49.80
16128;DHT22;8168;49.036;7.690;2022-07-05T15:18:31;27.30;49.80
16128;DHT22;8168;49.036;7.690;2022-07-05T15:21:02;27.30;50.10
16128;DHT22;8168;49.036;7.690;2022-07-05T15:23:34;27.40;53.40
16128;DHT22;8168;49.036;7.690;2022-07-05T15:26:05;27.40;54.10
16128;DHT22;8168;49.036;7.690;2022-07-05T15:28:36;27.50;52.70
16128;DHT22;8168;49.036;7.690;2022-07-05T15:31:06;27.50;50.60
16128;DHT22;8168;49.036;7.690;2022-07-05T15:33:37;27.50;51.10
16128;DHT22;8168;49.036;7.690;2022-07-05T15:36:08;27.50;53.40
16128;DHT22;8168;49.036;7.690;2022-07-05T15:38:39;27.40;52.00
16128;DHT22;8168;49.036;7.690;2022-07-05T15:41:09;27.40;51.50
16128;DHT22;8168;49.036;7.690;2022-07-05T15:43:40;27.40;50.70
16128;DHT22;8168;49.036;7.690;2022-07-05T15:46:10;27.30;49.10
16128;DHT22;8168;49.036;7.690;2022-07-05T15:48:41;27.10;48.90
16128;DHT22;8168;49.036;7.690;2022-07-05T15:51:12;27.10;49.00
16128;DHT22;8168;49.036;7.690;2022-07-05T15:53:43;27.10;49.00
16128;DHT22;8168;49.036;7.690;2022-07-05T15:56:14;27.20;51.20
16128;DHT22;8168;49.036;7.690;2022-07-05T15:58:45;27.30;52.70
16128;DHT22;8168;49.036;7.690;2022-07-05T16:01:15;27.30;54.00
16128;DHT22;8168;49.036;7.690;2022-07-05T16:03:46;27.30;55.60
16128;DHT22;8168;49.036;7.690;2022-07-05T16:06:16;27.40;52.00
16128;DHT22;8168;49.036;7.690;2022-07-05T16:08:47;27.40;50.50
16128;DHT22;8168;49.036;7.690;2022-07-05T16:11:21;27.30;49.20
16128;DHT22;8168;49.036;7.690;2022-07-05T16:13:51;27.30;50.70
16128;DHT22;8168;49.036;7.690;2022-07-05T16:16:22;27.30;48.80
16128;DHT22;8168;49.036;7.690;2022-07-05T16:18:53;27.30;48.60
16128;DHT22;8168;49.036;7.690;2022-07-05T16:21:24;27.20;47.90
16128;DHT22;8168;49.036;7.690;2022-07-05T16:23:54;27.20;47.90
16128;DHT22;8168;49.036;7.690;2022-07-05T16:26:26;27.20;49.10
16128;DHT22;8168;49.036;7.690;2022-07-05T16:28:57;27.10;47.80
16128;DHT22;8168;49.036;7.690;2022-07-05T16:31:28;26.90;48.30
16128;DHT22;8168;49.036;7.690;2022-07-05T16:33:59;26.90;47.60
16128;DHT22;8168;49.036;7.690;2022-07-05T16:36:30;26.70;47.90
16128;DHT22;8168;49.036;7.690;2022-07-05T16:39:00;26.70;48.30
16128;DHT22;8168;49.036;7.690;2022-07-05T16:41:32;26.70;50.00
16128;DHT22;8168;49.036;7.690;2022-07-05T16:44:03;26.70;50.00
16128;DHT22;8168;49.036;7.690;2022-07-05T16:46:33;26.80;52.20
16128;DHT22;8168;49.036;7.690;2022-07-05T16:49:04;26.80;52.00